Time;durP1;ratioP1;P1;durP2;ratioP2;P2;SDS_P1;SDS_P2;PMS_P1;PMS_P2;Temp;Humidity;BMP_temperature;BMP_pressure;BME280_temperature;BME280_humidity;BME280_pressure;Samples;Min_cycle;Max_cycle;Signal;HPM_P1;HPM_P2
2022/08/02 00:01:19;;;;;;;1.42;1.00;;;;;;;23.78;41.90;98995.28;4938612;29;20027;-91
2022/08/02 00:03:44;;;;;;;1.73;1.20;;;;;;;23.80;42.33;98993.78;4929108;29;20023;-91
2022/08/02 00:06:10;;;;;;;1.88;1.10;;;;;;;23.71;42.50;99006.13;4906452;29;20128;-90
2022/08/02 00:08:35;;;;;;;1.50;1.00;;;;;;;23.62;42.36;98986.34;4892045;29;20109;-93
2022/08/02 00:11:01;;;;;;;1.52;1.00;;;;;;;23.56;42.58;98986.63;4907281;29;20024;-90
2022/08/02 00:13:26;;;;;;;1.35;1.10;;;;;;;23.54;42.47;98986.19;4881075;29;20056;-93
2022/08/02 00:15:52;;;;;;;1.10;0.90;;;;;;;23.71;42.68;99011.63;4904698;29;20028;-90
2022/08/02 00:18:17;;;;;;;1.48;1.00;;;;;;;23.56;42.96;98994.88;4888664;29;20072;-90
2022/08/02 00:20:42;;;;;;;1.10;0.90;;;;;;;23.63;42.75;98998.91;4919166;29;20028;-90
2022/08/02 00:23:08;;;;;;;2.08;1.02;;;;;;;23.53;42.36;98986.56;4911916;29;20541;-91
2022/08/02 00:25:33;;;;;;;1.15;0.98;;;;;;;23.64;42.39;98995.00;4922960;29;20094;-93
2022/08/02 00:27:59;;;;;;;2.38;1.00;;;;;;;23.66;42.49;98992.69;4922654;29;20031;-92
2022/08/02 00:30:25;;;;;;;1.33;0.90;;;;;;;23.63;42.39;98983.22;4907271;29;20031;-92
2022/08/02 00:32:50;;;;;;;1.60;1.00;;;;;;;23.59;42.61;98980.41;4922252;29;20104;-92
2022/08/02 00:35:16;;;;;;;1.25;0.90;;;;;;;23.57;42.86;98993.72;4906397;29;20074;-91
2022/08/02 00:37:42;;;;;;;1.33;0.90;;;;;;;23.54;43.07;99004.66;4903804;29;20606;-91
2022/08/02 00:40:11;;;;;;;1.60;1.00;;;;;;;23.44;43.19;99000.53;4919214;29;20028;-90
2022/08/02 00:42:37;;;;;;;1.27;1.10;;;;;;;23.45;43.30;99009.56;4907825;29;20035;-91
2022/08/02 00:45:03;;;;;;;3.05;0.95;;;;;;;23.41;43.45;99004.03;4922309;29;20513;-91
2022/08/02 00:47:28;;;;;;;1.30;0.90;;;;;;;23.33;43.76;99008.59;4921989;29;20023;-92
2022/08/02 00:49:54;;;;;;;0.77;0.70;;;;;;;23.31;43.71;99002.66;4890167;29;20066;-92
2022/08/02 00:52:21;;;;;;;3.33;1.10;;;;;;;23.30;43.75;99000.25;4890936;29;20059;-91
2022/08/02 00:54:48;;;;;;;1.60;0.90;;;;;;;23.26;44.27;99004.91;4922263;29;20035;-91
2022/08/02 00:57:13;;;;;;;1.67;0.95;;;;;;;23.28;43.93;98997.88;4922341;29;20043;-91
2022/08/02 00:59:40;;;;;;;1.35;0.90;;;;;;;23.18;44.49;99006.72;4905899;29;20411;-91
2022/08/02 01:02:06;;;;;;;1.23;0.90;;;;;;;23.19;43.92;99008.31;4891228;29;20030;-91
2022/08/02 01:04:32;;;;;;;1.20;0.93;;;;;;;23.16;43.95;99020.03;4887549;29;20099;-90
2022/08/02 01:07:02;;;;;;;1.45;0.80;;;;;;;23.25;43.67;99011.56;4887042;29;20035;-91
2022/08/02 01:09:28;;;;;;;1.47;0.90;;;;;;;23.14;44.10;99017.63;4871503;29;20028;-92
2022/08/02 01:11:53;;;;;;;1.65;0.90;;;;;;;23.13;44.34;99012.50;4887073;29;20043;-91
2022/08/02 01:14:19;;;;;;;1.23;0.77;;;;;;;23.19;43.76;99025.56;4934422;29;20036;-92
2022/08/02 01:16:52;;;;;;;1.50;1.00;;;;;;;22.96;44.57;99008.19;4937369;29;20023;-92
2022/08/02 01:19:34;;;;;;;0.90;0.80;;;;;;;22.92;44.79;99002.63;4920793;29;20500;-91
2022/08/02 01:22:15;;;;;;;1.38;1.20;;;;;;;22.95;44.95;99018.41;4937051;29;20099;-90
2022/08/02 01:25:08;;;;;;;1.98;1.10;;;;;;;22.99;44.48;99024.75;4886850;29;20039;-92
2022/08/02 01:27:55;;;;;;;3.60;0.70;;;;;;;22.97;44.70;99029.81;4923653;29;20458;-91
2022/08/02 01:30:21;;;;;;;0.75;0.73;;;;;;;22.89;44.49;99008.03;4938450;29;20167;-91
2022/08/02 01:32:49;;;;;;;1.10;0.90;;;;;;;22.88;44.39;99011.94;4921675;29;20093;-91
2022/08/02 01:35:23;;;;;;;1.35;0.82;;;;;;;22.91;44.70;99008.47;4906726;29;20023;-91
2022/08/02 01:37:54;;;;;;;0.80;0.75;;;;;;;22.95;44.13;99006.59;4904632;29;20058;-91
2022/08/02 01:40:26;;;;;;;1.67;0.93;;;;;;;22.92;44.39;98991.63;4919865;29;20038;-92
2022/08/02 01:42:59;;;;;;;1.55;1.02;;;;;;;23.01;44.38;99018.91;4917310;29;20504;-93
2022/08/02 01:45:25;;;;;;;1.25;0.80;;;;;;;22.79;45.03;98999.22;4937094;29;20023;-92
2022/08/02 01:47:51;;;;;;;1.20;0.90;;;;;;;22.72;45.20;98993.59;4922750;29;20028;-91
2022/08/02 01:50:18;;;;;;;1.60;0.95;;;;;;;22.68;45.63;99002.88;4920429;29;20091;-91
2022/08/02 01:52:50;;;;;;;1.42;0.90;;;;;;;22.68;45.71;98997.38;4918408;29;20031;-91
2022/08/02 01:55:21;;;;;;;2.05;0.82;;;;;;;22.55;45.82;98991.22;4905749;29;20061;-91
2022/08/02 01:57:51;;;;;;;3.58;1.55;;;;;;;22.55;45.68;98988.50;4906376;29;20487;-91
2022/08/02 02:00:17;;;;;;;1.10;0.75;;;;;;;22.45;45.62;98980.81;4921084;29;20039;-92
2022/08/02 02:02:43;;;;;;;1.05;0.77;;;;;;;22.45;45.61;98987.09;4918215;29;20034;-92
2022/08/02 02:05:19;;;;;;;1.00;0.82;;;;;;;22.41;45.66;98988.94;4920402;29;20433;-92
2022/08/02 02:07:45;;;;;;;2.17;1.08;;;;;;;22.51;46.53;99001.34;4906399;29;20047;-92
2022/08/02 02:10:13;;;;;;;1.50;0.90;;;;;;;22.33;47.13;98998.97;4920106;29;20110;-92
2022/08/02 02:12:39;;;;;;;3.03;1.20;;;;;;;22.30;46.64;98994.19;4919391;29;20035;-92
2022/08/02 02:15:05;;;;;;;1.98;0.80;;;;;;;22.40;46.74;99001.09;4888372;29;20051;-92
2022/08/02 02:17:31;;;;;;;2.15;0.90;;;;;;;22.39;46.43;99015.94;4919809;29;20054;-92
2022/08/02 02:19:57;;;;;;;0.98;0.88;;;;;;;22.12;47.02;98993.75;4919828;29;20027;-92
2022/08/02 02:22:22;;;;;;;0.98;0.73;;;;;;;22.39;46.74;99024.19;4919288;29;20498;-91
2022/08/02 02:24:48;;;;;;;1.70;0.82;;;;;;;22.22;46.66;99000.63;4888685;29;20028;-92
2022/08/02 02:27:13;;;;;;;1.17;0.90;;;;;;;22.21;46.71;99012.78;4904532;29;20121;-93
2022/08/02 02:29:42;;;;;;;2.42;0.98;;;;;;;22.11;46.98;99005.88;4919885;29;20028;-92
2022/08/02 02:32:08;;;;;;;2.75;0.80;;;;;;;22.18;46.66;99016.22;4935699;29;20508;-91
2022/08/02 02:34:36;;;;;;;1.60;0.80;;;;;;;22.18;46.81;99005.25;4919970;29;20031;-92
2022/08/02 02:37:03;;;;;;;1.33;0.70;;;;;;;22.22;46.81;99016.31;4935524;29;20052;-92
2022/08/02 02:39:29;;;;;;;1.35;0.80;;;;;;;22.11;47.58;99010.56;4903964;29;20498;-91
2022/08/02 02:41:55;;;;;;;1.33;1.00;;;;;;;22.09;47.80;99012.88;4887844;29;20030;-91
2022/08/02 02:44:21;;;;;;;1.42;1.00;;;;;;;21.96;48.09;99009.41;4918954;29;20032;-92
2022/08/02 02:46:48;;;;;;;2.63;0.98;;;;;;;21.84;49.16;99018.50;4920095;29;20526;-92
2022/08/02 02:49:13;;;;;;;1.73;1.10;;;;;;;21.84;48.96;99023.22;4904868;29;20027;-93
2022/08/02 02:51:39;;;;;;;2.33;1.15;;;;;;;21.63;49.01;99007.00;4889151;29;20063;-91
2022/08/02 02:54:05;;;;;;;1.23;0.90;;;;;;;21.71;48.99;99022.50;4932785;29;20082;-91
2022/08/02 02:56:31;;;;;;;1.58;1.00;;;;;;;21.67;49.21;99025.13;4904913;29;20039;-91
2022/08/02 02:58:56;;;;;;;1.58;1.00;;;;;;;21.68;49.25;99021.22;4904590;29;20479;-92
2022/08/02 03:01:29;;;;;;;1.27;0.80;;;;;;;21.74;49.18;99035.47;4889532;29;20031;-92
2022/08/02 03:03:55;;;;;;;3.97;1.10;;;;;;;21.70;48.90;99027.16;4922384;29;20024;-91
2022/08/02 03:06:21;;;;;;;2.05;1.10;;;;;;;21.64;49.06;99028.56;4904825;29;20055;-92
2022/08/02 03:08:46;;;;;;;1.77;0.95;;;;;;;21.74;49.11;99030.78;4888758;29;20110;-91
2022/08/02 03:11:12;;;;;;;1.65;0.85;;;;;;;21.67;48.82;99027.06;4904253;29;20047;-90
2022/08/02 03:13:38;;;;;;;4.35;1.90;;;;;;;21.69;48.70;99033.78;4896977;29;20031;-91
2022/08/02 03:16:03;;;;;;;2.58;1.13;;;;;;;21.62;49.47;99028.09;4919105;29;20036;-91
2022/08/02 03:18:39;;;;;;;3.47;1.50;;;;;;;21.63;49.77;99040.69;4927726;29;20090;-91
2022/08/02 03:21:10;;;;;;;4.10;1.60;;;;;;;21.56;50.24;99049.50;4918930;29;20051;-91
2022/08/02 03:23:36;;;;;;;2.85;1.20;;;;;;;21.48;50.53;99047.72;4917097;29;20024;-91
2022/08/02 03:26:01;;;;;;;4.00;1.50;;;;;;;21.20;50.99;99047.66;4907766;29;20034;-91
2022/08/02 03:28:27;;;;;;;2.72;1.15;;;;;;;21.14;51.40;99046.31;4888152;29;20523;-91
2022/08/02 03:30:53;;;;;;;2.28;1.30;;;;;;;21.12;51.55;99070.50;4918784;29;20035;-90
2022/08/02 03:33:19;;;;;;;3.20;1.17;;;;;;;21.12;51.35;99065.81;4925103;29;20024;-91
2022/08/02 03:35:45;;;;;;;1.85;1.20;;;;;;;20.98;52.00;99065.44;4950730;29;20086;-90
2022/08/02 03:38:11;;;;;;;2.03;1.23;;;;;;;20.91;51.79;99067.94;4918483;29;20020;-90
2022/08/02 03:40:37;;;;;;;3.10;1.20;;;;;;;21.16;51.49;99087.84;4903404;29;20134;-90
2022/08/02 03:43:02;;;;;;;1.80;1.27;;;;;;;21.14;51.74;99079.16;4936069;29;20047;-91
2022/08/02 03:45:28;;;;;;;3.20;1.23;;;;;;;21.12;51.81;99082.25;4904163;29;20031;-95
2022/08/02 03:47:53;;;;;;;2.08;1.27;;;;;;;20.81;51.78;99068.41;4907565;29;20035;-94
2022/08/02 03:50:21;;;;;;;3.00;1.60;;;;;;;20.71;52.33;99065.00;4894741;29;20622;-94
2022/08/02 03:52:47;;;;;;;5.65;1.83;;;;;;;20.50;53.16;99081.53;4910202;29;20103;-94
2022/08/02 03:55:20;;;;;;;3.30;1.30;;;;;;;20.32;53.79;99075.47;4897495;29;20012;-95
2022/08/02 03:57:46;;;;;;;2.08;1.48;;;;;;;20.30;54.33;99093.34;4931138;29;20024;-96
2022/08/02 04:00:19;;;;;;;3.75;1.50;;;;;;;20.10;54.13;99068.47;4914618;29;20457;-94
2022/08/02 04:02:45;;;;;;;3.22;1.58;;;;;;;20.22;54.33;99088.78;4913846;29;20056;-94
2022/08/02 04:05:10;;;;;;;2.83;1.38;;;;;;;20.16;54.48;99097.19;4910784;29;20024;-96
2022/08/02 04:07:36;;;;;;;6.20;2.50;;;;;;;20.13;53.83;99089.69;4894381;29;20513;-96
2022/08/02 04:10:01;;;;;;;7.13;2.25;;;;;;;20.16;54.01;99105.41;4926515;29;20035;-96
2022/08/02 04:12:27;;;;;;;3.83;1.80;;;;;;;20.20;53.73;99094.59;4911136;29;20024;-95
2022/08/02 04:14:53;;;;;;;3.50;2.13;;;;;;;20.32;53.47;99100.06;4899468;29;20020;-95
2022/08/02 04:17:18;;;;;;;4.30;2.25;;;;;;;20.40;53.67;99095.66;4926342;29;20035;-90
2022/08/02 04:19:49;;;;;;;6.43;1.85;;;;;;;20.45;53.23;99095.41;4892279;29;20032;-92
2022/08/02 04:22:22;;;;;;;6.35;1.50;;;;;;;20.36;53.84;99098.25;4910930;29;20038;-93
2022/08/02 04:24:53;;;;;;;6.35;1.80;;;;;;;20.19;55.59;99110.19;4908727;29;20031;-95
2022/08/02 04:27:18;;;;;;;2.45;1.45;;;;;;;20.08;55.71;99121.91;4908150;29;20031;-93
2022/08/02 04:29:44;;;;;;;2.88;1.27;;;;;;;20.04;56.09;99119.03;4906393;29;20027;-91
2022/08/02 04:32:09;;;;;;;3.78;2.58;;;;;;;19.97;55.98;99100.47;4907715;29;20098;-95
2022/08/02 04:34:35;;;;;;;5.80;1.92;;;;;;;19.97;56.17;99105.91;4908953;29;20031;-92
2022/08/02 04:37:02;;;;;;;2.95;1.50;;;;;;;20.02;56.16;99113.09;4906391;29;20106;-92
2022/08/02 04:39:28;;;;;;;2.78;1.38;;;;;;;19.96;56.38;99111.72;4905769;29;20032;-93
2022/08/02 04:41:53;;;;;;;9.27;2.00;;;;;;;19.96;56.12;99100.78;4922199;29;20027;-93
2022/08/02 04:44:23;;;;;;;8.00;2.45;;;;;;;20.05;56.15;99112.44;4905622;29;20035;-91
2022/08/02 04:46:48;;;;;;;3.53;2.50;;;;;;;20.16;55.12;99102.66;4925068;29;20091;-94
2022/08/02 04:49:14;;;;;;;7.18;2.65;;;;;;;20.25;54.87;99113.50;4905786;29;20054;-91
2022/08/02 04:51:40;;;;;;;7.07;4.20;;;;;;;20.32;55.17;99116.47;4909266;29;20513;-93
2022/08/02 04:54:06;;;;;;;15.55;6.78;;;;;;;20.41;55.15;99121.84;4908534;29;20023;-94
2022/08/02 04:56:32;;;;;;;11.32;5.00;;;;;;;20.57;54.67;99127.44;4908259;29;20035;-94
2022/08/02 04:58:57;;;;;;;33.67;18.58;;;;;;;20.72;54.41;99154.16;4925963;29;20036;-92
2022/08/02 05:01:23;;;;;;;7.85;3.03;;;;;;;20.67;54.66;99134.41;4947693;29;20118;-95
2022/08/02 05:03:49;;;;;;;10.15;3.80;;;;;;;20.72;54.45;99131.47;4892315;29;20032;-94
2022/08/02 05:06:15;;;;;;;8.90;5.10;;;;;;;20.85;54.72;99143.19;4906817;29;20032;-93
2022/08/02 05:08:41;;;;;;;10.00;5.22;;;;;;;20.83;53.94;99137.28;4907496;29;20099;-95
2022/08/02 05:11:07;;;;;;;8.40;3.53;;;;;;;20.78;54.43;99133.63;4908916;29;20035;-94
2022/08/02 05:13:35;;;;;;;7.97;3.63;;;;;;;20.85;53.97;99121.31;4893253;29;20032;-94
2022/08/02 05:16:03;;;;;;;6.72;3.28;;;;;;;20.91;53.43;99139.09;4908920;29;20439;-95
2022/08/02 05:18:30;;;;;;;5.47;3.33;;;;;;;20.83;52.82;99112.66;4907673;29;20414;-93
2022/08/02 05:20:55;;;;;;;40.83;22.85;;;;;;;21.10;53.12;99142.03;4912739;29;20035;-93
2022/08/02 05:23:21;;;;;;;10.32;5.63;;;;;;;21.15;52.63;99135.53;4907819;29;20043;-93
2022/08/02 05:25:52;;;;;;;10.75;6.18;;;;;;;21.20;53.06;99141.56;4890924;29;20031;-95
2022/08/02 05:28:54;;;;;;;;;;;;;;;21.31;52.72;99147.38;4893533;29;20027;-91
2022/08/02 05:31:24;;;;;;;6.65;3.35;;;;;;;21.34;52.43;99132.19;4920568;29;19915;-91
2022/08/02 05:33:50;;;;;;;7.57;2.90;;;;;;;21.46;51.81;99126.72;4888097;29;20036;-94
2022/08/02 05:36:15;;;;;;;11.02;4.10;;;;;;;21.56;52.31;99133.63;4888080;29;20052;-90
2022/08/02 05:38:41;;;;;;;9.85;4.80;;;;;;;21.65;52.00;99128.81;4892050;29;20044;-93
2022/08/02 05:41:07;;;;;;;9.90;4.18;;;;;;;21.80;52.20;99144.50;4906068;29;20100;-93
2022/08/02 05:43:42;;;;;;;8.52;4.15;;;;;;;21.88;51.27;99128.25;4891159;29;20027;-94
2022/08/02 05:46:11;;;;;;;7.25;3.35;;;;;;;22.03;51.01;99130.22;4893100;29;20031;-95
2022/08/02 05:48:37;;;;;;;7.88;3.20;;;;;;;22.23;51.09;99141.31;4905843;29;20039;-91
2022/08/02 06:05:18;;;;;;;7.07;1.98;;;;;;;23.04;47.56;99162.97;4863458;29;20091;-93
2022/08/02 06:07:44;;;;;;;6.47;3.40;;;;;;;23.19;47.83;99160.16;4863497;29;20037;-94
2022/08/02 06:10:26;;;;;;;4.32;2.70;;;;;;;23.20;47.50;99150.78;4866203;29;20041;-94
2022/08/02 06:13:16;;;;;;;3.28;1.92;;;;;;;23.44;46.96;99170.91;4836521;29;20428;-93
2022/08/02 06:15:44;;;;;;;4.65;2.28;;;;;;;23.39;46.78;99151.97;4847739;29;20041;-92
2022/08/02 06:18:10;;;;;;;13.02;5.50;;;;;;;23.45;46.85;99169.78;4880160;29;20039;-94
2022/08/02 06:20:39;;;;;;;5.55;1.85;;;;;;;23.43;45.99;99163.84;4923449;29;20082;-93
2022/08/02 06:23:16;;;;;;;31.83;4.28;;;;;;;23.36;46.33;99163.66;4911405;29;20491;-93
2022/08/02 06:25:53;;;;;;;7.05;3.75;;;;;;;23.32;47.08;99165.53;4909820;29;20055;-94
2022/08/02 06:28:19;;;;;;;16.20;12.65;;;;;;;23.44;46.85;99170.91;4914822;29;20074;-94
2022/08/02 06:30:45;;;;;;;56.17;36.92;;;;;;;23.52;46.46;99156.16;4897493;29;20032;-95
2022/08/02 06:33:17;;;;;;;7.35;4.65;;;;;;;23.48;46.47;99158.03;4915902;29;20101;-95
2022/08/02 06:36:11;;;;;;;2.35;1.60;;;;;;;23.82;46.03;99187.81;4929095;29;20020;-96
2022/08/02 06:38:57;;;;;;;2.72;1.70;;;;;;;23.82;46.22;99169.34;4930166;29;20070;-94
2022/08/02 06:41:26;;;;;;;1.95;1.33;;;;;;;23.88;45.56;99162.41;4918620;29;20041;-93
2022/08/02 06:44:02;;;;;;;1.60;1.20;;;;;;;24.07;45.17;99169.84;4925480;29;20031;-93
2022/08/02 06:46:38;;;;;;;;;;;;;;;;;;;;;
2022/08/02 06:49:11;;;;;;;3.03;1.83;;;;;;;24.30;45.00;99188.34;4948392;29;20075;-96
2022/08/02 06:51:39;;;;;;;3.20;1.73;;;;;;;24.38;44.98;99193.63;4928640;29;20070;-94
2022/08/02 06:54:20;;;;;;;;;;;;;;;;;;;;;
2022/08/02 06:57:11;;;;;;;2.60;1.70;;;;;;;24.56;44.55;99180.19;4940977;29;20107;-95
2022/08/02 06:59:40;;;;;;;2.17;1.10;;;;;;;24.21;44.63;99159.09;4952348;29;20318;-94
2022/08/02 07:02:32;;;;;;;2.75;1.60;;;;;;;24.18;45.20;99162.59;4961078;29;20124;-95
2022/08/02 07:05:04;;;;;;;3.17;1.70;;;;;;;24.64;45.17;99180.34;4934099;29;20056;-94
2022/08/02 07:11:24;;;;;;;2.80;1.48;;;;;;;24.98;43.56;99181.25;4941702;29;20533;-93
2022/08/02 07:13:49;;;;;;;2.78;1.00;;;;;;;24.98;42.93;99165.53;4906207;29;20034;-95
2022/08/02 07:16:41;;;;;;;6.68;3.22;;;;;;;25.10;43.22;99166.50;4910249;29;20008;-96
2022/08/02 07:19:31;;;;;;;;;;;;;;;;;;;;;
2022/08/02 07:22:22;;;;;;;8.83;3.50;;;;;;;25.35;42.90;99153.09;4919310;29;20100;-96
2022/08/02 07:24:59;;;;;;;33.08;9.07;;;;;;;25.75;42.37;99184.72;4888967;29;20118;-94
2022/08/02 07:27:36;;;;;;;12.10;5.05;;;;;;;25.83;42.53;99169.84;4887118;29;20140;-93
2022/08/02 07:30:06;;;;;;;3.95;2.30;;;;;;;25.86;41.57;99160.81;4852904;29;20097;-93
2022/08/02 07:32:37;;;;;;;2.25;1.50;;;;;;;25.86;41.13;99160.81;4872933;29;20028;-95
2022/08/02 07:35:23;;;;;;;2.47;1.58;;;;;;;26.17;40.86;99178.16;4891260;29;20021;-94
2022/08/02 07:38:01;;;;;;;2.53;1.50;;;;;;;25.99;40.89;99151.13;4858099;29;20052;-96
2022/08/02 07:40:38;;;;;;;2.92;1.40;;;;;;;26.10;41.21;99139.41;4875448;29;20078;-94
2022/08/02 07:43:17;;;;;;;10.90;7.38;;;;;;;26.33;40.83;99158.56;4857701;29;20069;-95
2022/08/02 07:46:20;;;;;;;4.80;2.55;;;;;;;26.29;41.27;99161.28;4840214;29;20051;-96
2022/08/02 07:48:54;;;;;;;2.35;1.10;;;;;;;26.48;39.67;99165.81;4858946;29;20036;-96
2022/08/02 07:51:30;;;;;;;2.10;1.20;;;;;;;26.31;40.14;99145.13;4856116;29;20092;-95
2022/08/02 07:54:18;;;;;;;1.77;1.08;;;;;;;26.41;39.54;99163.78;4833856;29;20026;-92
2022/08/02 07:57:25;;;;;;;4.60;3.10;;;;;;;26.35;39.43;99162.53;4868018;29;20080;-93
2022/08/02 07:59:51;;;;;;;2.08;1.40;;;;;;;26.36;40.05;99149.53;4823144;29;20038;-94
2022/08/02 08:02:17;;;;;;;2.80;2.45;;;;;;;26.42;40.41;99151.56;4846869;29;20478;-95
2022/08/02 08:05:17;;;;;;;3.03;1.27;;;;;;;26.45;39.48;99152.75;4857541;29;20033;-93
2022/08/02 08:08:09;;;;;;;5.25;3.10;;;;;;;26.36;39.60;99147.56;4864916;29;20044;-95
2022/08/02 08:10:35;;;;;;;2.00;1.13;;;;;;;26.42;39.37;99161.81;4904491;29;20028;-93
2022/08/02 08:13:03;;;;;;;1.85;1.40;;;;;;;26.42;39.38;99161.81;4870248;29;20036;-96
2022/08/02 08:15:31;;;;;;;8.38;4.80;;;;;;;26.48;39.67;99151.22;4900111;29;20044;-92
2022/08/02 08:17:57;;;;;;;6.15;4.20;;;;;;;26.52;39.05;99163.06;4854721;29;20033;-93
2022/08/02 08:20:34;;;;;;;1.58;1.17;;;;;;;26.68;38.71;99151.81;4857420;29;20044;-95
2022/08/02 08:23:02;;;;;;;1.52;0.93;;;;;;;26.52;38.84;99152.84;4857490;29;20515;-95
2022/08/02 08:25:33;;;;;;;1.65;0.90;;;;;;;26.48;38.49;99151.22;4872004;29;20040;-96
2022/08/02 08:28:01;;;;;;;4.32;3.15;;;;;;;26.55;39.09;99165.88;4845578;29;20029;-94
2022/08/02 08:30:30;;;;;;;2.67;1.65;;;;;;;26.61;38.22;99149.78;4866158;29;20050;-93
2022/08/02 08:33:12;;;;;;;38.75;31.75;;;;;;;26.63;38.72;99146.66;4932228;29;20114;-93
2022/08/02 08:35:37;;;;;;;6.88;4.90;;;;;;;26.89;39.09;99145.66;4918474;29;20035;-92
2022/08/02 08:38:03;;;;;;;3.88;2.75;;;;;;;26.93;37.94;99144.47;4890371;29;20043;-92
2022/08/02 08:40:31;;;;;;;4.70;1.75;;;;;;;27.05;38.21;99159.97;4908977;29;20031;-94
2022/08/02 08:43:01;;;;;;;2.55;1.80;;;;;;;27.11;37.95;99143.81;4908542;29;20035;-93
2022/08/02 08:48:53;;;;;;;2.60;1.45;;;;;;;27.48;37.94;99151.16;4937796;29;20039;-93
2022/08/02 08:51:20;;;;;;;5.40;2.65;;;;;;;27.55;37.02;99151.97;4889598;29;20024;-92
2022/08/02 08:53:49;;;;;;;5.68;2.22;;;;;;;27.59;37.15;99136.19;4896289;29;20023;-93
2022/08/02 08:56:15;;;;;;;1.70;1.30;;;;;;;27.71;37.00;99148.88;4899283;29;20031;-93
2022/08/02 08:58:42;;;;;;;1.58;0.98;;;;;;;27.47;36.21;99153.13;4900579;29;20083;-94
2022/08/02 09:01:12;;;;;;;1.15;0.90;;;;;;;27.46;36.39;99146.00;4915161;29;20036;-93
2022/08/02 09:03:38;;;;;;;1.90;1.20;;;;;;;27.53;36.78;99148.81;4893727;29;20035;-92
2022/08/02 09:06:03;;;;;;;1.60;1.20;;;;;;;27.58;36.64;99142.91;4890549;29;20032;-93
2022/08/02 09:08:29;;;;;;;9.15;4.68;;;;;;;27.64;36.39;99143.31;4905026;29;20060;-95
2022/08/02 09:11:12;;;;;;;1.38;1.13;;;;;;;27.68;35.73;99146.09;4905691;29;20024;-92
2022/08/02 09:13:38;;;;;;;2.40;1.17;;;;;;;27.64;35.48;99129.47;4906085;29;20060;-92
2022/08/02 09:16:05;;;;;;;2.47;1.23;;;;;;;27.61;35.50;99120.00;4898903;29;20028;-91
2022/08/02 09:18:37;;;;;;;1.67;1.30;;;;;;;27.77;36.57;99149.31;4940604;29;20027;-92
2022/08/02 09:21:14;;;;;;;1.10;0.90;;;;;;;27.78;36.03;99135.06;4920744;29;20028;-91
2022/08/02 09:23:41;;;;;;;44.83;32.80;;;;;;;27.80;35.96;99126.38;4887458;29;20138;-94
2022/08/02 09:26:08;;;;;;;5.63;4.50;;;;;;;27.86;35.99;99116.53;4899797;29;20031;-91
2022/08/02 09:28:37;;;;;;;2.97;1.80;;;;;;;28.10;35.49;99128.88;4918693;29;20141;-93
2022/08/02 09:31:05;;;;;;;2.38;1.13;;;;;;;28.25;35.13;99137.19;4932439;29;20557;-91
2022/08/02 09:33:33;;;;;;;8.50;5.30;;;;;;;28.33;35.32;99117.41;4929451;29;20039;-93
2022/08/02 09:36:00;;;;;;;2.88;1.80;;;;;;;28.53;35.14;99125.34;4931977;29;20565;-94
2022/08/02 09:39:30;;;;;;;;;;;;;;;;;;;;;
2022/08/02 09:42:11;;;;;;;1.10;0.80;;;;;;;28.75;33.81;99113.06;4931367;29;20401;-92
2022/08/02 09:44:39;;;;;;;1.42;1.08;;;;;;;28.75;33.03;99131.69;4887154;29;20043;-93
2022/08/02 09:47:13;;;;;;;4.07;1.25;;;;;;;28.78;32.32;99117.84;4902701;29;20047;-94
2022/08/02 09:49:44;;;;;;;1.45;0.90;;;;;;;28.76;33.22;99116.63;4906881;29;20016;-93
2022/08/02 09:52:11;;;;;;;1.17;0.70;;;;;;;28.70;32.07;99119.03;4889424;29;20032;-91
2022/08/02 09:54:37;;;;;;;1.08;0.85;;;;;;;28.61;32.54;99121.38;4925579;29;20034;-92
2022/08/02 09:57:06;;;;;;;14.63;11.48;;;;;;;28.65;32.88;99130.50;4924734;29;20034;-90
2022/08/02 09:59:37;;;;;;;1.92;1.73;;;;;;;28.61;32.78;99119.41;4907434;29;20027;-90
2022/08/02 10:02:11;;;;;;;5.22;1.25;;;;;;;28.81;33.28;99116.25;4915965;29;20027;-91
2022/08/02 10:04:37;;;;;;;1.50;1.10;;;;;;;29.02;32.62;99112.63;4921274;29;20027;-92
2022/08/02 10:07:02;;;;;;;1.80;1.10;;;;;;;29.01;32.13;99105.50;4938512;29;20474;-91
2022/08/02 10:09:28;;;;;;;1.55;0.98;;;;;;;28.96;32.08;99111.47;4923744;29;20059;-91
2022/08/02 10:11:57;;;;;;;1.15;0.90;;;;;;;29.08;31.65;99118.56;4907281;29;20027;-92
2022/08/02 10:15:15;;;;;;;1.88;1.08;;;;;;;29.14;31.28;99117.78;4905562;29;20091;-92
2022/08/02 10:18:09;;;;;;;4.07;2.50;;;;;;;29.07;32.09;99116.97;4930565;29;20036;-92
2022/08/02 10:20:43;;;;;;;3.28;1.60;;;;;;;29.33;31.57;99093.56;4866161;29;20496;-89
2022/08/02 10:23:09;;;;;;;2.75;1.50;;;;;;;29.51;31.98;99105.38;4877459;29;20036;-90
2022/08/02 10:25:37;;;;;;;2.17;1.00;;;;;;;29.60;31.23;99113.25;4884786;29;20119;-91
2022/08/02 10:28:03;;;;;;;1.88;1.20;;;;;;;29.69;31.14;99121.91;4868184;29;20040;-93
2022/08/02 10:30:31;;;;;;;1.50;1.05;;;;;;;29.62;30.75;99088.66;4869254;29;20063;-93
2022/08/02 10:32:57;;;;;;;3.65;1.75;;;;;;;29.67;31.48;99093.78;4887033;29;20473;-94
2022/08/02 10:35:22;;;;;;;3.15;1.25;;;;;;;29.91;31.19;99096.88;4902158;29;20052;-92
2022/08/02 10:37:50;;;;;;;1.52;0.95;;;;;;;30.17;30.98;99101.03;4885651;29;20056;-91
2022/08/02 10:40:22;;;;;;;1.50;1.10;;;;;;;29.96;31.10;99104.75;4901387;29;20495;-91
2022/08/02 10:46:55;;;;;;;1.90;0.93;;;;;;;29.73;30.10;99092.19;4922864;29;20039;-93
2022/08/02 10:49:24;;;;;;;2.60;1.00;;;;;;;29.69;30.86;99077.50;4903992;29;20071;-92
2022/08/02 10:52:04;;;;;;;1.23;0.95;;;;;;;29.88;31.20;99103.22;4905602;29;20060;-92
2022/08/02 10:54:37;;;;;;;1.60;0.90;;;;;;;29.98;31.12;99105.91;4958045;29;20028;-93
2022/08/02 10:57:14;;;;;;;1.95;1.08;;;;;;;29.79;30.67;99082.25;4942140;29;20073;-92
2022/08/02 10:59:41;;;;;;;1.10;1.00;;;;;;;29.62;30.40;99074.78;4959867;28;20027;-93
2022/08/02 11:02:07;;;;;;;1.20;1.00;;;;;;;29.80;30.45;99086.63;4929429;29;20075;-95
2022/08/02 11:04:36;;;;;;;1.15;0.98;;;;;;;29.94;30.53;99099.59;4913318;29;20876;-93
2022/08/02 11:07:33;;;;;;;1.30;1.08;;;;;;;30.21;28.29;99096.25;4944210;29;20046;-92
2022/08/02 11:10:23;;;;;;;0.95;0.70;;;;;;;30.15;28.56;99064.56;4926847;29;20475;-94
2022/08/02 11:13:13;;;;;;;4.70;1.83;;;;;;;30.37;28.53;99091.00;4931438;29;20036;-90
2022/08/02 11:16:33;;;;;;;1.30;1.02;;;;;;;30.17;29.04;99078.81;4911460;29;20047;-94
2022/08/02 11:18:59;;;;;;;3.08;1.10;;;;;;;30.29;29.74;99086.69;4893486;29;20066;-92
2022/08/02 11:22:31;;;;;;;;;;;;;;;;;;;;;
2022/08/02 11:26:04;;;;;;;2.20;1.20;;;;;;;30.34;30.07;99105.72;4930017;29;20035;-96
2022/08/02 11:28:31;;;;;;;1.50;0.95;;;;;;;30.18;30.43;99094.28;4934565;29;20028;-96
2022/08/02 11:31:55;;;;;;;1.20;0.93;;;;;;;30.09;30.23;99074.50;4906885;29;20043;-95
2022/08/02 11:34:41;;;;;;;1.30;0.80;;;;;;;29.72;30.27;99073.97;4916131;29;20055;-95
2022/08/02 11:37:07;;;;;;;0.95;0.80;;;;;;;29.84;30.08;99074.69;4926686;29;20052;-95
2022/08/02 11:39:41;;;;;;;1.35;0.90;;;;;;;29.96;30.01;99069.44;4896738;29;20039;-94
2022/08/02 12:08:47;;;;;;;3.25;1.92;;;;;;;30.28;29.50;99068.44;5040114;23;20417;-93
2022/08/02 12:11:36;;;;;;;;;;;;;;;;;;;;;
2022/08/02 12:14:05;;;;;;;4.43;1.90;;;;;;;30.18;29.61;99052.63;4976609;23;20128;-92
2022/08/02 12:19:55;;;;;;;2.67;1.38;;;;;;;30.19;28.10;99068.09;4958329;29;20055;-94
2022/08/02 12:22:30;;;;;;;1.20;0.90;;;;;;;30.09;27.83;99052.28;4939648;29;20038;-95
2022/08/02 12:28:21;;;;;;;1.45;1.10;;;;;;;30.12;29.08;99077.28;5131068;23;20185;-96
2022/08/02 12:31:16;;;;;;;3.83;1.00;;;;;;;30.06;28.27;99065.03;4911199;29;20479;-95
2022/08/02 12:34:02;;;;;;;1.40;1.00;;;;;;;29.99;28.50;99051.97;4868744;29;20044;-94
2022/08/02 12:36:38;;;;;;;1.17;0.80;;;;;;;30.08;28.63;99059.06;4926719;29;20046;-94
2022/08/02 12:39:09;;;;;;;1.33;0.85;;;;;;;30.19;28.47;99054.97;4913121;29;20031;-95
2022/08/02 12:41:38;;;;;;;1.17;0.90;;;;;;;30.44;28.54;99048.47;4897155;29;20023;-95
2022/08/02 12:44:16;;;;;;;1.20;0.98;;;;;;;30.42;28.00;99046.13;4900339;29;20095;-94
2022/08/02 12:47:21;;;;;;;1.10;0.85;;;;;;;30.34;28.60;99029.91;4928931;29;20027;-96
2022/08/02 12:50:36;;;;;;;0.80;0.60;;;;;;;30.60;27.89;99057.03;4929833;29;20023;-96
2022/08/02 12:53:53;;;;;;;1.73;0.88;;;;;;;30.50;27.96;99054.38;4946621;29;20038;-94
2022/08/02 12:56:31;;;;;;;1.27;0.80;;;;;;;30.57;28.62;99038.41;4927457;29;20346;-96
2022/08/02 12:58:57;;;;;;;2.38;0.70;;;;;;;30.60;27.90;99045.13;4909316;29;20430;-94
2022/08/02 13:01:52;;;;;;;;;;;;;;;;;;;;;
2022/08/02 13:04:25;;;;;;;1.50;1.25;;;;;;;30.44;28.71;99045.69;4918002;29;20099;-94